sensor_id;sensor_type;location;lat;lon;timestamp;pressure;altitude;pressure_sealevel;temperature;humidity
43115;BME280;28727;50.068;14.452;2023-07-20T00:01:30;98724.75;;;20.79;51.33
43115;BME280;28727;50.068;14.452;2023-07-20T00:04:02;98728.69;;;20.71;51.52
43115;BME280;28727;50.068;14.452;2023-07-20T00:06:35;98737.78;;;20.70;51.63
43115;BME280;28727;50.068;14.452;2023-07-20T00:09:09;98740.47;;;20.70;51.66
43115;BME280;28727;50.068;14.452;2023-07-20T00:11:48;98749.34;;;20.71;51.54
43115;BME280;28727;50.068;14.452;2023-07-20T00:14:22;98756.00;;;20.68;52.04
43115;BME280;28727;50.068;14.452;2023-07-20T00:16:56;98757.63;;;20.69;52.03
43115;BME280;28727;50.068;14.452;2023-07-20T00:19:30;98757.59;;;20.64;52.30
43115;BME280;28727;50.068;14.452;2023-07-20T00:22:03;98766.88;;;20.57;52.54
43115;BME280;28727;50.068;14.452;2023-07-20T00:24:36;98764.63;;;20.49;53.01
43115;BME280;28727;50.068;14.452;2023-07-20T00:27:08;98764.78;;;20.42;53.26
43115;BME280;28727;50.068;14.452;2023-07-20T00:29:40;98764.22;;;20.40;53.26
43115;BME280;28727;50.068;14.452;2023-07-20T00:32:13;98753.72;;;20.38;53.49
43115;BME280;28727;50.068;14.452;2023-07-20T00:34:45;98754.53;;;20.39;53.32
43115;BME280;28727;50.068;14.452;2023-07-20T00:37:18;98753.25;;;20.41;53.40
43115;BME280;28727;50.068;14.452;2023-07-20T00:39:56;98751.13;;;20.43;53.41
43115;BME280;28727;50.068;14.452;2023-07-20T00:42:33;98754.81;;;20.37;53.35
43115;BME280;28727;50.068;14.452;2023-07-20T00:45:06;98765.09;;;20.29;53.80
43115;BME280;28727;50.068;14.452;2023-07-20T00:47:38;98751.91;;;20.27;53.78
43115;BME280;28727;50.068;14.452;2023-07-20T00:50:11;98757.06;;;20.29;53.95
43115;BME280;28727;50.068;14.452;2023-07-20T00:52:44;98755.53;;;20.33;53.93
43115;BME280;28727;50.068;14.452;2023-07-20T00:55:16;98764.16;;;20.35;53.82
43115;BME280;28727;50.068;14.452;2023-07-20T00:57:48;98757.06;;;20.29;53.75
43115;BME280;28727;50.068;14.452;2023-07-20T01:00:21;98763.56;;;20.16;54.41
43115;BME280;28727;50.068;14.452;2023-07-20T01:02:55;98775.25;;;20.10;54.36
43115;BME280;28727;50.068;14.452;2023-07-20T01:05:37;98770.16;;;20.09;55.04
43115;BME280;28727;50.068;14.452;2023-07-20T01:08:24;98775.84;;;20.12;54.87
43115;BME280;28727;50.068;14.452;2023-07-20T01:11:05;98768.91;;;20.16;54.87
43115;BME280;28727;50.068;14.452;2023-07-20T01:13:39;98773.22;;;20.17;54.65
43115;BME280;28727;50.068;14.452;2023-07-20T01:16:16;98770.56;;;20.17;55.03
43115;BME280;28727;50.068;14.452;2023-07-20T01:18:49;98783.16;;;20.17;54.77
43115;BME280;28727;50.068;14.452;2023-07-20T01:21:34;98781.50;;;20.16;54.94
43115;BME280;28727;50.068;14.452;2023-07-20T01:24:31;98785.00;;;20.16;55.04
43115;BME280;28727;50.068;14.452;2023-07-20T01:30:03;98779.34;;;20.13;54.93
43115;BME280;28727;50.068;14.452;2023-07-20T01:32:42;98782.75;;;20.08;54.93
43115;BME280;28727;50.068;14.452;2023-07-20T01:35:16;98781.94;;;20.08;55.13
43115;BME280;28727;50.068;14.452;2023-07-20T01:37:53;98793.13;;;20.04;55.72
43115;BME280;28727;50.068;14.452;2023-07-20T01:40:30;98788.00;;;20.03;55.50
43115;BME280;28727;50.068;14.452;2023-07-20T01:43:02;98803.72;;;19.94;55.70
43115;BME280;28727;50.068;14.452;2023-07-20T01:45:34;98794.53;;;19.90;55.65
43115;BME280;28727;50.068;14.452;2023-07-20T01:48:11;98798.56;;;19.93;55.66
43115;BME280;28727;50.068;14.452;2023-07-20T01:50:49;98800.22;;;19.94;55.31
43115;BME280;28727;50.068;14.452;2023-07-20T01:53:22;98802.06;;;19.93;55.24
43115;BME280;28727;50.068;14.452;2023-07-20T01:55:56;98800.78;;;19.96;55.13
43115;BME280;28727;50.068;14.452;2023-07-20T01:58:28;98799.72;;;19.97;55.01
43115;BME280;28727;50.068;14.452;2023-07-20T02:01:03;98789.50;;;19.94;55.09
43115;BME280;28727;50.068;14.452;2023-07-20T02:03:35;98797.53;;;19.94;55.17
43115;BME280;28727;50.068;14.452;2023-07-20T02:06:14;98789.50;;;19.94;55.22
43115;BME280;28727;50.068;14.452;2023-07-20T02:08:46;98788.44;;;19.95;55.11
43115;BME280;28727;50.068;14.452;2023-07-20T02:11:17;98792.97;;;19.94;55.00
43115;BME280;28727;50.068;14.452;2023-07-20T02:13:49;98786.81;;;19.94;54.84
43115;BME280;28727;50.068;14.452;2023-07-20T02:16:21;98784.28;;;19.87;55.18
43115;BME280;28727;50.068;14.452;2023-07-20T02:18:53;98783.69;;;19.85;55.07
43115;BME280;28727;50.068;14.452;2023-07-20T02:21:28;98789.31;;;19.84;55.22
43115;BME280;28727;50.068;14.452;2023-07-20T02:24:00;98786.38;;;19.85;55.18
43115;BME280;28727;50.068;14.452;2023-07-20T02:26:32;98786.97;;;19.87;55.07
43115;BME280;28727;50.068;14.452;2023-07-20T02:29:04;98780.78;;;19.87;55.03
43115;BME280;28727;50.068;14.452;2023-07-20T02:31:37;98781.00;;;19.85;55.58
43115;BME280;28727;50.068;14.452;2023-07-20T02:34:14;98791.75;;;19.85;55.39
43115;BME280;28727;50.068;14.452;2023-07-20T02:36:46;98789.25;;;19.79;55.71
43115;BME280;28727;50.068;14.452;2023-07-20T02:39:18;98796.03;;;19.70;55.79
43115;BME280;28727;50.068;14.452;2023-07-20T02:41:49;98798.47;;;19.71;55.86
43115;BME280;28727;50.068;14.452;2023-07-20T02:44:22;98800.09;;;19.72;55.88
43115;BME280;28727;50.068;14.452;2023-07-20T02:46:54;98800.03;;;19.67;55.94
43115;BME280;28727;50.068;14.452;2023-07-20T02:49:27;98798.13;;;19.68;55.80
43115;BME280;28727;50.068;14.452;2023-07-20T02:52:02;98793.25;;;19.65;55.73
43115;BME280;28727;50.068;14.452;2023-07-20T02:54:34;98798.63;;;19.65;55.74
43115;BME280;28727;50.068;14.452;2023-07-20T02:57:07;98801.28;;;19.48;56.27
43115;BME280;28727;50.068;14.452;2023-07-20T02:59:44;98807.31;;;19.43;56.65
43115;BME280;28727;50.068;14.452;2023-07-20T03:02:16;98798.81;;;19.46;56.37
43115;BME280;28727;50.068;14.452;2023-07-20T03:04:49;98802.66;;;19.39;56.45
43115;BME280;28727;50.068;14.452;2023-07-20T03:07:23;98807.09;;;19.33;57.00
43115;BME280;28727;50.068;14.452;2023-07-20T03:09:58;98815.13;;;19.33;56.72
43115;BME280;28727;50.068;14.452;2023-07-20T03:12:29;98808.75;;;19.34;56.87
43115;BME280;28727;50.068;14.452;2023-07-20T03:15:02;98811.31;;;19.29;57.36
43115;BME280;28727;50.068;14.452;2023-07-20T03:17:40;98809.69;;;19.28;57.33
43115;BME280;28727;50.068;14.452;2023-07-20T03:20:20;98819.34;;;19.29;57.21
43115;BME280;28727;50.068;14.452;2023-07-20T03:22:59;98821.22;;;19.29;57.29
43115;BME280;28727;50.068;14.452;2023-07-20T03:25:34;98818.06;;;19.32;57.25
43115;BME280;28727;50.068;14.452;2023-07-20T03:28:14;98829.84;;;19.31;57.26
43115;BME280;28727;50.068;14.452;2023-07-20T03:30:55;98827.63;;;19.28;57.46
43115;BME280;28727;50.068;14.452;2023-07-20T03:33:28;98828.94;;;19.25;57.53
43115;BME280;28727;50.068;14.452;2023-07-20T03:36:03;98827.38;;;19.29;57.36
43115;BME280;28727;50.068;14.452;2023-07-20T03:38:43;98820.31;;;19.23;57.39
43115;BME280;28727;50.068;14.452;2023-07-20T03:41:20;98822.06;;;19.17;57.81
43115;BME280;28727;50.068;14.452;2023-07-20T03:43:53;98822.19;;;19.11;57.80
43115;BME280;28727;50.068;14.452;2023-07-20T03:46:29;98826.88;;;19.04;58.16
43115;BME280;28727;50.068;14.452;2023-07-20T03:49:02;98822.94;;;18.95;58.55
43115;BME280;28727;50.068;14.452;2023-07-20T03:51:35;98824.22;;;18.92;58.56
43115;BME280;28727;50.068;14.452;2023-07-20T03:54:07;98832.94;;;18.99;58.75
43115;BME280;28727;50.068;14.452;2023-07-20T03:56:42;98833.13;;;19.09;58.30
43115;BME280;28727;50.068;14.452;2023-07-20T03:59:17;98839.78;;;19.18;58.44
43115;BME280;28727;50.068;14.452;2023-07-20T04:01:49;98845.00;;;19.25;58.37
43115;BME280;28727;50.068;14.452;2023-07-20T04:04:21;98837.78;;;19.26;58.20
43115;BME280;28727;50.068;14.452;2023-07-20T04:06:53;98844.28;;;19.30;58.37
43115;BME280;28727;50.068;14.452;2023-07-20T04:09:51;98836.91;;;19.37;57.98
43115;BME280;28727;50.068;14.452;2023-07-20T04:12:23;98849.38;;;19.43;57.75
43115;BME280;28727;50.068;14.452;2023-07-20T04:14:55;98840.63;;;19.47;57.87
43115;BME280;28727;50.068;14.452;2023-07-20T04:17:53;98844.38;;;19.46;57.70
43115;BME280;28727;50.068;14.452;2023-07-20T04:20:27;98844.13;;;19.48;57.56
43115;BME280;28727;50.068;14.452;2023-07-20T04:22:59;98854.22;;;19.57;57.24
43115;BME280;28727;50.068;14.452;2023-07-20T04:25:31;98846.72;;;19.71;56.88
43115;BME280;28727;50.068;14.452;2023-07-20T04:28:10;98849.25;;;19.78;56.60
43115;BME280;28727;50.068;14.452;2023-07-20T04:30:49;98855.53;;;19.83;56.54
43115;BME280;28727;50.068;14.452;2023-07-20T04:33:27;98849.13;;;19.84;56.83
43115;BME280;28727;50.068;14.452;2023-07-20T04:36:00;98847.63;;;19.77;57.06
43115;BME280;28727;50.068;14.452;2023-07-20T04:38:37;98849.00;;;19.79;57.25
43115;BME280;28727;50.068;14.452;2023-07-20T04:41:22;98843.41;;;19.81;57.00
43115;BME280;28727;50.068;14.452;2023-07-20T04:43:58;98847.25;;;19.85;57.02
43115;BME280;28727;50.068;14.452;2023-07-20T04:46:33;98855.47;;;19.95;56.80
43115;BME280;28727;50.068;14.452;2023-07-20T04:49:33;98861.88;;;19.94;56.70
43115;BME280;28727;50.068;14.452;2023-07-20T04:52:05;98864.25;;;19.90;56.91
43115;BME280;28727;50.068;14.452;2023-07-20T04:54:38;98860.47;;;19.91;56.76
43115;BME280;28727;50.068;14.452;2023-07-20T04:57:14;98863.97;;;19.92;56.61
43115;BME280;28727;50.068;14.452;2023-07-20T04:59:51;98860.41;;;20.03;56.09
43115;BME280;28727;50.068;14.452;2023-07-20T05:02:23;98861.34;;;20.09;56.00
43115;BME280;28727;50.068;14.452;2023-07-20T05:04:56;98861.50;;;20.19;55.61
43115;BME280;28727;50.068;14.452;2023-07-20T05:07:27;98854.13;;;20.26;55.24
43115;BME280;28727;50.068;14.452;2023-07-20T05:09:59;98855.88;;;20.32;55.01
43115;BME280;28727;50.068;14.452;2023-07-20T05:12:33;98849.25;;;20.39;55.59
43115;BME280;28727;50.068;14.452;2023-07-20T05:15:08;98856.34;;;20.46;55.44
43115;BME280;28727;50.068;14.452;2023-07-20T05:17:43;98861.78;;;20.51;55.20
43115;BME280;28727;50.068;14.452;2023-07-20T05:20:15;98858.69;;;20.59;55.22
43115;BME280;28727;50.068;14.452;2023-07-20T05:22:47;98857.03;;;20.74;54.48
43115;BME280;28727;50.068;14.452;2023-07-20T05:25:21;98861.75;;;20.84;54.21
43115;BME280;28727;50.068;14.452;2023-07-20T05:27:54;98858.38;;;20.94;54.17
43115;BME280;28727;50.068;14.452;2023-07-20T05:30:27;98864.00;;;20.92;53.89
43115;BME280;28727;50.068;14.452;2023-07-20T05:33:00;98866.69;;;20.92;53.94
43115;BME280;28727;50.068;14.452;2023-07-20T05:35:36;98860.84;;;20.95;53.96
43115;BME280;28727;50.068;14.452;2023-07-20T05:38:08;98867.38;;;21.04;54.10
43115;BME280;28727;50.068;14.452;2023-07-20T05:40:41;98865.00;;;21.24;53.67
43115;BME280;28727;50.068;14.452;2023-07-20T05:43:42;98857.31;;;21.55;53.28
43115;BME280;28727;50.068;14.452;2023-07-20T05:46:14;98867.59;;;21.85;52.59
43115;BME280;28727;50.068;14.452;2023-07-20T05:48:49;98869.53;;;22.16;51.78
43115;BME280;28727;50.068;14.452;2023-07-20T05:51:22;98856.50;;;22.35;50.68
43115;BME280;28727;50.068;14.452;2023-07-20T05:53:53;98856.50;;;22.35;50.31
43115;BME280;28727;50.068;14.452;2023-07-20T05:56:27;98863.16;;;22.27;50.23
43115;BME280;28727;50.068;14.452;2023-07-20T05:59:01;98868.31;;;22.34;50.25
43115;BME280;28727;50.068;14.452;2023-07-20T06:04:06;98869.66;;;23.05;48.85
43115;BME280;28727;50.068;14.452;2023-07-20T06:06:38;98873.59;;;23.45;48.61
43115;BME280;28727;50.068;14.452;2023-07-20T06:09:11;98868.09;;;23.77;46.92
43115;BME280;28727;50.068;14.452;2023-07-20T06:11:53;98866.00;;;24.09;46.67
43115;BME280;28727;50.068;14.452;2023-07-20T06:14:25;98868.75;;;24.44;45.79
43115;BME280;28727;50.068;14.452;2023-07-20T06:17:01;98869.78;;;24.69;44.82
43115;BME280;28727;50.068;14.452;2023-07-20T06:19:34;98877.34;;;24.82;44.51
43115;BME280;28727;50.068;14.452;2023-07-20T06:22:06;98871.09;;;25.07;43.92
43115;BME280;28727;50.068;14.452;2023-07-20T06:24:38;98870.03;;;25.03;43.50
43115;BME280;28727;50.068;14.452;2023-07-20T06:27:09;98871.09;;;25.12;43.01
43115;BME280;28727;50.068;14.452;2023-07-20T06:29:41;98871.06;;;25.27;42.31
43115;BME280;28727;50.068;14.452;2023-07-20T06:32:16;98863.94;;;25.56;42.14
43115;BME280;28727;50.068;14.452;2023-07-20T06:34:48;98875.72;;;25.76;41.47
43115;BME280;28727;50.068;14.452;2023-07-20T06:37:23;98862.25;;;25.65;41.81
43115;BME280;28727;50.068;14.452;2023-07-20T06:40:06;98870.50;;;25.89;41.48
43115;BME280;28727;50.068;14.452;2023-07-20T06:42:48;98866.38;;;26.02;41.02
43115;BME280;28727;50.068;14.452;2023-07-20T06:45:22;98861.63;;;26.18;40.46
43115;BME280;28727;50.068;14.452;2023-07-20T06:47:54;98851.50;;;26.33;39.69
43115;BME280;28727;50.068;14.452;2023-07-20T06:50:27;98850.75;;;26.62;39.06
43115;BME280;28727;50.068;14.452;2023-07-20T06:53:08;98851.41;;;26.77;39.10
43115;BME280;28727;50.068;14.452;2023-07-20T06:55:42;98849.00;;;27.00;38.58
43115;BME280;28727;50.068;14.452;2023-07-20T06:58:14;98860.28;;;27.12;38.41
43115;BME280;28727;50.068;14.452;2023-07-20T07:00:47;98861.06;;;27.36;38.28
43115;BME280;28727;50.068;14.452;2023-07-20T07:03:21;98856.00;;;27.53;36.74
43115;BME280;28727;50.068;14.452;2023-07-20T07:05:59;98861.88;;;27.37;37.37
43115;BME280;28727;50.068;14.452;2023-07-20T07:08:31;98865.56;;;27.22;38.00
43115;BME280;28727;50.068;14.452;2023-07-20T07:11:03;98862.41;;;27.39;36.91
43115;BME280;28727;50.068;14.452;2023-07-20T07:13:35;98858.44;;;27.74;36.82
43115;BME280;28727;50.068;14.452;2023-07-20T07:16:07;98860.00;;;27.80;36.65
43115;BME280;28727;50.068;14.452;2023-07-20T07:18:40;98857.41;;;27.69;36.40
43115;BME280;28727;50.068;14.452;2023-07-20T07:21:12;98862.84;;;27.51;36.61
43115;BME280;28727;50.068;14.452;2023-07-20T07:23:47;98871.13;;;27.12;37.12
43115;BME280;28727;50.068;14.452;2023-07-20T07:26:19;98867.13;;;27.04;37.21
43115;BME280;28727;50.068;14.452;2023-07-20T07:28:51;98867.19;;;27.23;36.95
43115;BME280;28727;50.068;14.452;2023-07-20T07:31:25;98864.94;;;27.30;36.75
43115;BME280;28727;50.068;14.452;2023-07-20T07:33:57;98864.00;;;27.16;36.49
43115;BME280;28727;50.068;14.452;2023-07-20T07:36:33;98862.84;;;27.22;36.61
43115;BME280;28727;50.068;14.452;2023-07-20T07:39:08;98872.13;;;27.40;36.54
43115;BME280;28727;50.068;14.452;2023-07-20T07:42:04;98870.38;;;26.77;36.79
43115;BME280;28727;50.068;14.452;2023-07-20T07:44:35;98867.28;;;26.60;37.34
43115;BME280;28727;50.068;14.452;2023-07-20T07:47:07;98865.81;;;26.73;37.64
43115;BME280;28727;50.068;14.452;2023-07-20T07:49:42;98868.31;;;26.64;37.44
43115;BME280;28727;50.068;14.452;2023-07-20T07:52:18;98867.84;;;26.57;37.63
43115;BME280;28727;50.068;14.452;2023-07-20T07:54:50;98871.31;;;26.63;37.64
43115;BME280;28727;50.068;14.452;2023-07-20T07:57:24;98865.56;;;26.69;37.70
43115;BME280;28727;50.068;14.452;2023-07-20T07:59:56;98876.78;;;26.92;37.18
43115;BME280;28727;50.068;14.452;2023-07-20T08:02:28;98874.31;;;27.19;37.10
43115;BME280;28727;50.068;14.452;2023-07-20T08:05:00;98869.31;;;27.50;36.47
43115;BME280;28727;50.068;14.452;2023-07-20T08:07:41;98866.50;;;27.60;35.68
43115;BME280;28727;50.068;14.452;2023-07-20T08:10:17;98870.69;;;27.71;34.54
43115;BME280;28727;50.068;14.452;2023-07-20T08:12:48;98870.63;;;27.95;34.94
43115;BME280;28727;50.068;14.452;2023-07-20T08:15:21;98869.72;;;27.81;34.69
43115;BME280;28727;50.068;14.452;2023-07-20T08:17:53;98885.78;;;27.58;36.15
43115;BME280;28727;50.068;14.452;2023-07-20T08:20:28;98881.41;;;27.62;35.28
43115;BME280;28727;50.068;14.452;2023-07-20T08:23:00;98878.91;;;27.42;35.25
43115;BME280;28727;50.068;14.452;2023-07-20T08:25:42;98879.94;;;27.46;34.82
43115;BME280;28727;50.068;14.452;2023-07-20T08:28:25;98887.31;;;27.41;35.38
43115;BME280;28727;50.068;14.452;2023-07-20T08:30:58;98887.38;;;27.12;35.29
43115;BME280;28727;50.068;14.452;2023-07-20T08:33:34;98884.22;;;27.05;35.53
43115;BME280;28727;50.068;14.452;2023-07-20T08:36:06;98884.34;;;27.42;35.03
43115;BME280;28727;50.068;14.452;2023-07-20T08:38:53;98878.38;;;27.64;35.08
43115;BME280;28727;50.068;14.452;2023-07-20T08:41:25;98874.06;;;27.82;34.64
43115;BME280;28727;50.068;14.452;2023-07-20T08:44:00;98896.63;;;27.35;35.19
43115;BME280;28727;50.068;14.452;2023-07-20T08:46:33;98887.03;;;27.18;35.72
43115;BME280;28727;50.068;14.452;2023-07-20T08:49:11;98901.13;;;26.97;35.53
43115;BME280;28727;50.068;14.452;2023-07-20T08:51:43;98900.78;;;27.03;35.71
43115;BME280;28727;50.068;14.452;2023-07-20T08:54:17;98889.69;;;27.00;35.67
43115;BME280;28727;50.068;14.452;2023-07-20T08:56:52;98894.88;;;26.67;36.26
43115;BME280;28727;50.068;14.452;2023-07-20T08:59:26;98892.09;;;26.72;36.48
43115;BME280;28727;50.068;14.452;2023-07-20T09:02:09;98890.69;;;27.09;36.10
43115;BME280;28727;50.068;14.452;2023-07-20T09:04:50;98887.25;;;27.69;34.99
43115;BME280;28727;50.068;14.452;2023-07-20T09:07:25;98881.78;;;27.93;34.24
43115;BME280;28727;50.068;14.452;2023-07-20T09:09:57;98878.25;;;27.93;34.14
43115;BME280;28727;50.068;14.452;2023-07-20T09:12:30;98875.13;;;27.86;34.40
43115;BME280;28727;50.068;14.452;2023-07-20T09:15:04;98887.19;;;27.75;35.29
43115;BME280;28727;50.068;14.452;2023-07-20T09:17:39;98878.56;;;27.25;34.58
43115;BME280;28727;50.068;14.452;2023-07-20T09:20:18;98876.63;;;26.44;36.68
43115;BME280;28727;50.068;14.452;2023-07-20T09:22:54;98880.31;;;26.24;36.61
43115;BME280;28727;50.068;14.452;2023-07-20T09:25:28;98873.59;;;26.12;37.33
43115;BME280;28727;50.068;14.452;2023-07-20T09:28:02;98886.34;;;26.06;37.70
43115;BME280;28727;50.068;14.452;2023-07-20T09:30:36;98884.50;;;26.01;36.78
43115;BME280;28727;50.068;14.452;2023-07-20T09:33:19;98887.28;;;25.86;36.97
43115;BME280;28727;50.068;14.452;2023-07-20T09:36:02;98879.19;;;25.81;37.80
43115;BME280;28727;50.068;14.452;2023-07-20T09:38:58;98875.06;;;25.94;36.78
43115;BME280;28727;50.068;14.452;2023-07-20T09:41:40;98871.69;;;26.51;36.10
43115;BME280;28727;50.068;14.452;2023-07-20T09:44:19;98862.09;;;27.16;34.98
43115;BME280;28727;50.068;14.452;2023-07-20T09:46:54;98868.63;;;27.39;34.25
43115;BME280;28727;50.068;14.452;2023-07-20T09:49:30;98865.41;;;27.80;33.94
43115;BME280;28727;50.068;14.452;2023-07-20T09:52:22;98857.69;;;28.05;33.21
43115;BME280;28727;50.068;14.452;2023-07-20T09:55:19;98858.28;;;27.84;32.61
43115;BME280;28727;50.068;14.452;2023-07-20T09:57:52;98862.19;;;27.78;32.88
43115;BME280;28727;50.068;14.452;2023-07-20T10:00:28;98866.44;;;27.65;32.76
43115;BME280;28727;50.068;14.452;2023-07-20T10:03:06;98868.47;;;27.30;33.67
43115;BME280;28727;50.068;14.452;2023-07-20T10:05:43;98869.22;;;27.36;32.85
43115;BME280;28727;50.068;14.452;2023-07-20T10:08:19;98873.03;;;27.59;32.69
43115;BME280;28727;50.068;14.452;2023-07-20T10:10:57;98868.81;;;27.24;32.94
43115;BME280;28727;50.068;14.452;2023-07-20T10:13:37;98857.84;;;27.10;33.61
43115;BME280;28727;50.068;14.452;2023-07-20T10:16:29;98851.50;;;27.20;33.59
43115;BME280;28727;50.068;14.452;2023-07-20T10:19:13;98865.22;;;27.05;33.86
43115;BME280;28727;50.068;14.452;2023-07-20T10:21:56;98862.00;;;27.50;33.64
43115;BME280;28727;50.068;14.452;2023-07-20T10:24:31;98854.47;;;27.66;32.91
43115;BME280;28727;50.068;14.452;2023-07-20T10:27:04;98854.38;;;27.52;32.68
43115;BME280;28727;50.068;14.452;2023-07-20T10:29:36;98858.22;;;27.46;32.74
43115;BME280;28727;50.068;14.452;2023-07-20T10:32:09;98863.25;;;27.34;32.96
43115;BME280;28727;50.068;14.452;2023-07-20T10:34:51;98852.31;;;27.44;32.84
43115;BME280;28727;50.068;14.452;2023-07-20T10:37:50;98843.75;;;27.93;32.27
43115;BME280;28727;50.068;14.452;2023-07-20T10:40:36;98845.44;;;28.27;31.43
43115;BME280;28727;50.068;14.452;2023-07-20T10:43:10;98853.75;;;27.98;31.80
43115;BME280;28727;50.068;14.452;2023-07-20T10:45:51;98860.25;;;27.59;32.52
43115;BME280;28727;50.068;14.452;2023-07-20T10:48:28;98855.88;;;27.16;32.34
43115;BME280;28727;50.068;14.452;2023-07-20T10:51:12;98866.56;;;26.78;35.04
43115;BME280;28727;50.068;14.452;2023-07-20T10:56:49;98864.53;;;27.18;34.01
43115;BME280;28727;50.068;14.452;2023-07-20T11:01:59;98866.28;;;27.09;34.04
43115;BME280;28727;50.068;14.452;2023-07-20T11:04:40;98863.50;;;27.14;33.83
43115;BME280;28727;50.068;14.452;2023-07-20T11:07:16;98857.44;;;27.22;33.52
43115;BME280;28727;50.068;14.452;2023-07-20T11:09:50;98861.41;;;27.06;33.89
43115;BME280;28727;50.068;14.452;2023-07-20T11:12:28;98861.00;;;26.94;33.73
43115;BME280;28727;50.068;14.452;2023-07-20T11:15:01;98848.78;;;27.20;34.35
43115;BME280;28727;50.068;14.452;2023-07-20T11:17:33;98854.69;;;27.51;34.47
43115;BME280;28727;50.068;14.452;2023-07-20T11:20:11;98862.81;;;27.69;34.03
43115;BME280;28727;50.068;14.452;2023-07-20T11:22:47;98850.06;;;27.89;32.88
43115;BME280;28727;50.068;14.452;2023-07-20T11:25:20;98842.94;;;27.93;31.99
43115;BME280;28727;50.068;14.452;2023-07-20T11:27:55;98848.16;;;27.70;31.71
43115;BME280;28727;50.068;14.452;2023-07-20T11:30:33;98848.66;;;28.10;31.48
43115;BME280;28727;50.068;14.452;2023-07-20T11:33:08;98840.75;;;28.32;31.90
43115;BME280;28727;50.068;14.452;2023-07-20T11:35:45;98839.84;;;28.37;31.51
43115;BME280;28727;50.068;14.452;2023-07-20T11:38:26;98832.44;;;28.24;31.60
43115;BME280;28727;50.068;14.452;2023-07-20T11:40:58;98825.31;;;28.28;31.44
43115;BME280;28727;50.068;14.452;2023-07-20T11:43:33;98830.94;;;28.50;31.16
43115;BME280;28727;50.068;14.452;2023-07-20T11:46:05;98826.34;;;28.32;31.35
43115;BME280;28727;50.068;14.452;2023-07-20T11:48:40;98825.63;;;28.26;31.00
43115;BME280;28727;50.068;14.452;2023-07-20T11:51:16;98818.28;;;28.27;29.81
43115;BME280;28727;50.068;14.452;2023-07-20T11:53:51;98824.72;;;28.12;30.33
43115;BME280;28727;50.068;14.452;2023-07-20T11:56:25;98822.19;;;28.02;30.43
43115;BME280;28727;50.068;14.452;2023-07-20T11:58:58;98818.75;;;27.96;30.62
43115;BME280;28727;50.068;14.452;2023-07-20T12:01:40;98824.91;;;28.02;29.61
43115;BME280;28727;50.068;14.452;2023-07-20T12:04:12;98825.34;;;28.09;29.93
43115;BME280;28727;50.068;14.452;2023-07-20T12:06:45;98817.56;;;28.21;30.09
43115;BME280;28727;50.068;14.452;2023-07-20T12:09:18;98811.63;;;28.19;29.91
43115;BME280;28727;50.068;14.452;2023-07-20T12:11:52;98814.88;;;28.35;29.60
43115;BME280;28727;50.068;14.452;2023-07-20T12:14:27;98805.66;;;28.49;29.32
43115;BME280;28727;50.068;14.452;2023-07-20T12:16:59;98804.63;;;28.45;29.90
43115;BME280;28727;50.068;14.452;2023-07-20T12:19:31;98812.78;;;28.45;30.01
43115;BME280;28727;50.068;14.452;2023-07-20T12:22:06;98817.38;;;28.31;29.61
43115;BME280;28727;50.068;14.452;2023-07-20T12:24:40;98805.97;;;28.16;30.11
43115;BME280;28727;50.068;14.452;2023-07-20T12:27:13;98805.25;;;27.91;30.16
43115;BME280;28727;50.068;14.452;2023-07-20T12:29:50;98799.22;;;27.76;29.84
43115;BME280;28727;50.068;14.452;2023-07-20T12:32:24;98804.44;;;27.53;30.89
43115;BME280;28727;50.068;14.452;2023-07-20T12:34:56;98803.81;;;27.38;31.12
43115;BME280;28727;50.068;14.452;2023-07-20T12:37:31;98807.75;;;27.26;31.73
43115;BME280;28727;50.068;14.452;2023-07-20T12:40:03;98806.22;;;27.20;32.39
43115;BME280;28727;50.068;14.452;2023-07-20T12:42:40;98798.03;;;27.44;32.09
43115;BME280;28727;50.068;14.452;2023-07-20T12:45:14;98797.09;;;27.54;30.93
43115;BME280;28727;50.068;14.452;2023-07-20T12:47:50;98801.94;;;27.14;31.47
43115;BME280;28727;50.068;14.452;2023-07-20T12:50:22;98808.94;;;26.97;32.02
43115;BME280;28727;50.068;14.452;2023-07-20T12:52:54;98804.78;;;26.75;31.92
43115;BME280;28727;50.068;14.452;2023-07-20T12:55:26;98801.09;;;26.66;31.88
43115;BME280;28727;50.068;14.452;2023-07-20T12:58:08;98798.50;;;26.56;32.12
43115;BME280;28727;50.068;14.452;2023-07-20T13:00:45;98803.63;;;26.29;31.96
43115;BME280;28727;50.068;14.452;2023-07-20T13:03:17;98801.41;;;26.36;32.09
43115;BME280;28727;50.068;14.452;2023-07-20T13:05:56;98808.28;;;26.52;32.34
43115;BME280;28727;50.068;14.452;2023-07-20T13:08:35;98799.56;;;26.84;31.98
43115;BME280;28727;50.068;14.452;2023-07-20T13:11:07;98796.28;;;27.11;31.06
43115;BME280;28727;50.068;14.452;2023-07-20T13:13:39;98793.00;;;27.14;31.77
43115;BME280;28727;50.068;14.452;2023-07-20T13:16:21;98787.50;;;27.19;31.66
43115;BME280;28727;50.068;14.452;2023-07-20T13:18:56;98793.38;;;27.26;31.47
43115;BME280;28727;50.068;14.452;2023-07-20T13:21:29;98788.19;;;27.29;31.42
43115;BME280;28727;50.068;14.452;2023-07-20T13:24:01;98784.38;;;27.30;30.92
43115;BME280;28727;50.068;14.452;2023-07-20T13:26:35;98783.28;;;27.32;30.50
43115;BME280;28727;50.068;14.452;2023-07-20T13:29:10;98777.19;;;27.21;30.29
43115;BME280;28727;50.068;14.452;2023-07-20T13:31:41;98776.47;;;27.10;30.07
43115;BME280;28727;50.068;14.452;2023-07-20T13:34:14;98776.47;;;27.10;30.29
43115;BME280;28727;50.068;14.452;2023-07-20T13:36:53;98784.88;;;27.14;31.32
43115;BME280;28727;50.068;14.452;2023-07-20T13:39:26;98784.34;;;27.12;30.79
43115;BME280;28727;50.068;14.452;2023-07-20T13:42:01;98771.75;;;27.21;30.75
43115;BME280;28727;50.068;14.452;2023-07-20T13:44:35;98776.00;;;27.46;30.33